Overview Statistics Trail Chart Weather Telemetry Raw packets
 

This is the latest recevied weather packets stored in our database for station/object DB7GV-8. If no packets are shown the sender has not sent any weather packets the latest 10 day(s).

<< 14 15 16 17 18 19 20 >>
Time Temp. Humidity Pressure Rain* Wind** Luminosity Snow
1777384452 24.44° C 27% 1015.5 hPa - - - -
1777383547 24.44° C 26% 1015.6 hPa - - - -
1777382641 25° C 24% 1015.6 hPa - - - -
1777381735 25° C 26% 1015.7 hPa - - - -
1777380830 25° C 25% 1015.8 hPa - - - -
1777379925 25° C 25% 1015.9 hPa - - - -
1777379019 24.44° C 25% 1015.9 hPa - - - -
1777378113 25.56° C 25% 1015.9 hPa - - - -
1777377208 25° C 25% 1016 hPa - - - -
1777376303 24.44° C 25% 1016.1 hPa - - - -
1777375397 25° C 26% 1016.2 hPa - - - -
1777374492 25.56° C 26% 1016.2 hPa - - - -
1777373587 25° C 26% 1016.2 hPa - - - -
1777372681 25.56° C 26% 1016.2 hPa - - - -
1777371775 25.56° C 26% 1016.3 hPa - - - -
1777370871 26.11° C 25% 1016.4 hPa - - - -
1777369965 25° C 25% 1016.4 hPa - - - -
1777369060 26.11° C 24% 1016.4 hPa - - - -
1777368154 26.67° C 24% 1016.4 hPa - - - -
1777367249 26.11° C 24% 1016.3 hPa - - - -
1777366343 25.56° C 26% 1016.4 hPa - - - -
1777365438 25° C 26% 1016.4 hPa - - - -
1777364533 24.44° C 25% 1016.4 hPa - - - -
1777363627 38.33° C 15% 1016.6 hPa - - - -
1777362721 35.56° C 16% 1016.6 hPa - - - -

* Rain since midnight (hover to see other rain measurements)
** Current wind speed in m/s (hover to see current wind gust speed)